Atkinson, New Hampshire
Current Conditions -  °F | °C
As of 7:54 AM on Sunday 23 Nov 2014 (Local Time) from KLWM Reporting Station
Broken Clouds Broken Clouds  
Wind Chill: 38°   Ceiling: 11000
Heat Index: 43°   Visibility: 10mi
Dew Point: 30°   Wind: 9mph
Humidity: 60%   Direction: 230°SW
Pressure: 30.11"   Gusts: NA
Location:  42.84°N, 71.15°W
Report Text: KLWM 231254Z 23008KT 10SM BKN110 06/M01 A3011 RMK AO2 SLP195 T00611011
Loading
Personal Weather Stations






























Interactive Weather Map New forecast layout! Learn more

10-Day Weather Forecast

Advertisements
Track Severe Weather on mobile